PKWA/KWA METAR and TAF weather

Enter ICAO airport designator
Station Type Date Time Source
PKWA METAR 2021/07/28 04:20 UTC NOAA

PKWA 280420Z AUTO 13007KT 10SM CLR 30/24 A2982 RMK AO2 T02950242


Station Type Date Time Source
PKWA Decoded METAR 2021/07/28 04:20 UTC NOAA

Kwajalein, Bucholz AAF, Kwajalein KMR ATOL Airport, Marshall Islands (PKWA) 08-43N 167-44E 2M
Jul 28, 2021 - 12:20 AM EDT / 2021.07.28 0420 UTC
Wind: from the SE (130 degrees) at 8 MPH (7 KT):0
Visibility: 10 mile(s):0
Sky conditions: clear
Temperature: 85.1 F (29.5 C)
Heat index: 94.1 F (34.5 C):1
Dew Point: 75.6 F (24.2 C)
Relative Humidity: 73%
Pressure (altimeter): 29.82 in. Hg (1009 hPa)
ob: PKWA 280420Z AUTO 13007KT 10SM CLR 30/24 A2982 RMK AO2 T02950242
cycle: 4

Station Type Date Time Source
PKWA TAF 2021/07/27 18:33 UTC NOAA

TAF PKWA 271728Z 2718/2818 10007KT P6SM VCSH SCT018 SCT050 BKN140

Example: see airport list